createdAt,value
2023-02-05T00:01:01.074Z,102744.47
2023-02-05T00:03:29.115Z,102715.47
2023-02-05T00:05:57.200Z,102712.16
2023-02-05T00:08:27.610Z,102708.75
2023-02-05T00:10:55.967Z,102694.59
2023-02-05T00:13:25.253Z,102696.47
2023-02-05T00:15:54.461Z,102684.22
2023-02-05T00:18:31.830Z,102681.72
2023-02-05T00:20:59.774Z,102649.13
2023-02-05T00:23:28.102Z,102667.69
2023-02-05T00:25:56.232Z,102675.59
2023-02-05T00:28:35.415Z,102671.31
2023-02-05T00:31:13.673Z,102649.28
2023-02-05T00:33:41.838Z,102661.63
2023-02-05T00:36:16.269Z,102644.97
2023-02-05T00:38:45.217Z,102651.13
2023-02-05T00:41:17.142Z,102622.09
2023-02-05T00:43:49.256Z,102624.88
2023-02-05T00:46:18.276Z,102604.81
2023-02-05T00:48:46.574Z,102576.84
2023-02-05T00:51:14.812Z,102573.34
2023-02-05T00:53:42.723Z,102576.19
2023-02-05T00:56:17.689Z,102563.03
2023-02-05T00:58:48.998Z,102538.41
2023-02-05T01:01:20.560Z,102547.31
2023-02-05T01:03:48.482Z,102548.22
2023-02-05T01:06:16.546Z,102558.69
2023-02-05T01:08:46.891Z,102585.00
2023-02-05T01:11:15.041Z,102573.69
2023-02-05T01:13:42.992Z,102557.09
2023-02-05T01:16:15.720Z,102550.13
2023-02-05T01:18:43.800Z,102563.28
2023-02-05T01:21:15.835Z,102565.06
2023-02-05T01:23:43.920Z,102555.34
2023-02-05T01:26:11.842Z,102556.25
2023-02-05T01:28:39.770Z,102551.00
2023-02-05T01:31:07.707Z,102548.34
2023-02-05T01:33:37.027Z,102558.91
2023-02-05T01:36:05.351Z,102562.44
2023-02-05T01:38:33.392Z,102560.66
2023-02-05T01:41:03.570Z,102559.84
2023-02-05T01:43:31.491Z,102550.25
2023-02-05T01:46:26.028Z,102556.28
2023-02-05T01:49:00.027Z,102568.56
2023-02-05T01:51:31.353Z,102558.84
2023-02-05T01:53:59.506Z,102595.56
2023-02-05T01:56:32.622Z,102588.47
2023-02-05T01:59:05.007Z,102595.47
2023-02-05T02:01:33.879Z,102590.16
2023-02-05T02:04:05.529Z,102583.13
2023-02-05T02:06:35.244Z,102597.06
2023-02-05T02:09:04.079Z,102608.41
2023-02-05T02:11:37.020Z,102645.13
2023-02-05T02:14:07.645Z,102672.28
2023-02-05T02:16:37.547Z,102657.41
2023-02-05T02:19:18.655Z,102668.88
2023-02-05T02:22:12.862Z,102648.78
2023-02-05T02:25:05.759Z,102523.56
2023-02-05T02:27:45.392Z,102542.03
2023-02-05T02:30:21.364Z,102609.41
2023-02-05T02:32:59.236Z,102615.59
2023-02-05T02:35:33.901Z,102633.13
2023-02-05T02:38:10.040Z,102609.50
2023-02-05T02:40:43.506Z,102599.84
2023-02-05T02:43:17.618Z,102595.56
2023-02-05T02:45:52.396Z,102595.63
2023-02-05T02:48:23.770Z,102602.59
2023-02-05T02:51:01.245Z,102610.53
2023-02-05T02:53:35.041Z,102631.53
2023-02-05T02:56:05.960Z,102720.06
2023-02-05T02:58:41.269Z,102682.41
2023-02-05T03:01:13.287Z,102749.00
2023-02-05T03:03:47.276Z,102765.69
2023-02-05T03:06:16.446Z,102788.56
2023-02-05T03:08:51.552Z,102785.78
2023-02-05T03:11:19.706Z,102813.94
2023-02-05T03:13:49.470Z,102813.94
2023-02-05T03:16:19.449Z,102855.06
2023-02-05T03:18:47.825Z,102863.94
2023-02-05T03:21:19.297Z,102863.94
2023-02-05T03:23:47.216Z,102872.81
2023-02-05T03:26:26.708Z,102874.69
2023-02-05T03:28:57.444Z,102906.19
2023-02-05T03:31:36.161Z,102912.38
2023-02-05T03:34:18.903Z,102920.41
2023-02-05T03:36:56.070Z,102923.97
2023-02-05T03:39:33.184Z,102914.31
2023-02-05T03:42:12.343Z,102918.72
2023-02-05T03:45:04.227Z,102922.19
2023-02-05T03:47:50.276Z,102923.09
2023-02-05T03:50:23.090Z,102925.81
2023-02-05T03:52:57.710Z,102925.84
2023-02-05T03:55:30.075Z,102924.19
2023-02-05T03:58:01.707Z,102923.31
2023-02-05T04:00:33.432Z,102914.63
2023-02-05T04:03:01.477Z,102926.03
2023-02-05T04:05:29.282Z,102932.16
2023-02-05T04:07:57.141Z,102949.72
2023-02-05T04:10:26.145Z,102936.44
2023-02-05T04:12:54.144Z,102940.06
2023-02-05T04:15:21.946Z,102944.44
2023-02-05T04:17:51.263Z,102942.75
2023-02-05T04:20:19.521Z,102936.59
2023-02-05T04:22:47.416Z,102941.91
2023-02-05T04:25:15.320Z,102950.78
2023-02-05T04:27:43.188Z,102944.66
2023-02-05T04:30:12.792Z,102941.22
2023-02-05T04:32:42.613Z,102928.97
2023-02-05T04:35:11.974Z,102928.94
2023-02-05T04:37:39.943Z,102932.56
2023-02-05T04:40:48.086Z,102926.41
2023-02-05T04:43:34.154Z,102914.91
2023-02-05T04:46:06.780Z,102936.91
2023-02-05T04:48:34.886Z,102936.06
2023-02-05T04:51:09.191Z,102945.78
2023-02-05T04:53:37.505Z,102937.88
2023-02-05T04:56:07.194Z,102959.03
2023-02-05T04:58:35.576Z,102952.88
2023-02-05T05:01:03.891Z,102951.16
2023-02-05T05:03:32.278Z,102953.75
2023-02-05T05:06:04.881Z,102940.63
2023-02-05T05:08:39.196Z,102939.84
2023-02-05T05:11:08.959Z,102930.13
2023-02-05T05:13:41.810Z,102940.75
2023-02-05T05:16:12.048Z,102941.66
2023-02-05T05:18:41.103Z,102943.44
2023-02-05T05:21:09.516Z,102938.28
2023-02-05T05:23:39.051Z,102939.22
2023-02-05T05:26:08.037Z,102933.91
2023-02-05T05:28:38.977Z,102939.13
2023-02-05T05:31:08.569Z,102912.88
2023-02-05T05:33:36.641Z,102908.44
2023-02-05T05:36:06.678Z,102913.78
2023-02-05T05:38:34.629Z,102910.25
2023-02-05T05:41:21.588Z,102906.88
2023-02-05T05:43:51.514Z,102919.16
2023-02-05T05:46:22.993Z,102925.22
2023-02-05T05:48:52.172Z,102919.88
2023-02-05T05:51:21.305Z,102926.75
2023-02-05T05:53:52.419Z,102923.13
2023-02-05T05:56:22.241Z,102930.16
2023-02-05T05:58:51.293Z,102937.03
2023-02-05T06:01:22.030Z,102938.88
2023-02-05T06:03:50.611Z,102945.06
2023-02-05T06:06:19.485Z,102952.03
2023-02-05T06:08:47.260Z,102952.75
2023-02-05T06:11:15.328Z,102948.31
2023-02-05T06:13:44.642Z,102959.59
2023-02-05T06:16:19.324Z,102968.22
2023-02-05T06:18:47.386Z,102965.50
2023-02-05T06:21:15.958Z,102955.81
2023-02-05T06:23:43.953Z,102962.81
2023-02-05T06:26:12.063Z,102961.88
2023-02-05T06:28:40.326Z,102969.81
2023-02-05T06:31:09.747Z,102962.72
2023-02-05T06:33:37.931Z,102967.91
2023-02-05T06:36:06.759Z,102976.69
2023-02-05T06:38:34.639Z,102973.19
2023-02-05T06:41:04.635Z,102967.03
2023-02-05T06:43:32.582Z,102985.47
2023-02-05T06:46:00.900Z,102974.03
2023-02-05T06:48:30.281Z,102985.53
2023-02-05T06:50:58.272Z,102993.44
2023-02-05T06:53:26.121Z,102982.91
2023-02-05T06:55:56.301Z,102998.66
2023-02-05T06:58:24.233Z,102994.38
2023-02-05T07:00:53.218Z,102976.78
2023-02-05T07:03:22.348Z,102993.56
2023-02-05T07:05:51.713Z,103003.22
2023-02-05T07:08:20.693Z,102993.53
2023-02-05T07:10:48.505Z,103011.19
2023-02-05T07:13:16.460Z,103004.13
2023-02-05T07:15:44.740Z,103009.34
2023-02-05T07:18:13.803Z,103011.97
2023-02-05T07:20:42.733Z,103011.94
2023-02-05T07:23:12.121Z,103017.28
2023-02-05T07:25:40.368Z,103016.41
2023-02-05T07:28:09.971Z,103018.19
2023-02-05T07:30:41.970Z,103012.94
2023-02-05T07:33:10.440Z,103019.13
2023-02-05T07:35:39.384Z,103020.88
2023-02-05T07:38:07.348Z,103020.94
2023-02-05T07:40:38.032Z,103030.56
2023-02-05T07:43:06.991Z,103039.41
2023-02-05T07:45:35.031Z,103041.13
2023-02-05T07:48:03.116Z,103047.31
2023-02-05T07:50:31.040Z,103046.41
2023-02-05T07:52:59.216Z,103038.59
2023-02-05T07:55:27.291Z,103049.06
2023-02-05T07:57:56.508Z,103067.59
2023-02-05T08:00:24.905Z,103064.00
2023-02-05T08:02:52.776Z,103070.22
2023-02-05T08:05:20.640Z,103068.41
2023-02-05T08:07:48.482Z,103069.41
2023-02-05T08:10:18.603Z,103072.03
2023-02-05T08:12:46.546Z,103075.50
2023-02-05T08:15:16.136Z,103059.78
2023-02-05T08:17:44.034Z,103067.75
2023-02-05T08:20:16.454Z,103067.75
2023-02-05T08:22:45.528Z,103062.53
2023-02-05T08:25:15.449Z,103076.59
2023-02-05T08:27:44.041Z,103088.97
2023-02-05T08:30:16.053Z,103084.59
2023-02-05T08:32:49.782Z,103092.47
2023-02-05T08:35:18.565Z,103095.13
2023-02-05T08:37:46.485Z,103087.19
2023-02-05T08:40:17.138Z,103100.34
2023-02-05T08:42:45.596Z,103110.91
2023-02-05T08:45:16.534Z,103103.88
2023-02-05T08:47:44.569Z,103116.19
2023-02-05T08:50:13.032Z,103117.16
2023-02-05T08:52:41.436Z,103125.09
2023-02-05T08:55:09.696Z,103108.31
2023-02-05T08:57:40.007Z,103125.16
2023-02-05T09:00:09.417Z,103124.28
2023-02-05T09:02:41.919Z,103132.19
2023-02-05T09:05:10.224Z,103126.00
2023-02-05T09:07:42.025Z,103156.75
2023-02-05T09:10:11.730Z,103156.00
2023-02-05T09:12:40.886Z,103150.75
2023-02-05T09:15:09.869Z,103149.81
2023-02-05T09:17:40.483Z,103149.88
2023-02-05T09:20:09.425Z,103169.16
2023-02-05T09:22:42.867Z,103174.47
2023-02-05T09:25:12.203Z,103175.31
2023-02-05T09:27:40.047Z,103187.69
2023-02-05T09:30:10.397Z,103199.09
2023-02-05T09:32:39.940Z,103207.84
2023-02-05T09:35:08.443Z,103204.19
2023-02-05T09:37:36.404Z,103209.47
2023-02-05T09:40:21.429Z,103204.31
2023-02-05T09:42:59.366Z,103224.00
2023-02-05T09:45:40.082Z,103222.25
2023-02-05T09:51:10.842Z,103270.75
2023-02-05T09:53:44.744Z,103265.78
2023-02-05T09:56:15.512Z,103267.59
2023-02-05T09:58:47.229Z,103267.44
2023-02-05T10:01:20.360Z,103263.34
2023-02-05T10:03:51.007Z,103261.78
2023-02-05T10:06:37.592Z,103260.59
2023-02-05T10:09:18.414Z,103247.44
2023-02-05T10:11:54.905Z,103254.72
2023-02-05T10:14:33.569Z,103252.78
2023-02-05T10:17:29.553Z,103267.06
2023-02-05T10:20:11.344Z,103265.56
2023-02-05T10:22:50.639Z,103257.09
2023-02-05T10:25:37.276Z,103225.25
2023-02-05T10:28:20.009Z,103192.31
2023-02-05T10:30:56.760Z,103173.63
2023-02-05T10:33:53.085Z,103170.88
2023-02-05T10:36:23.192Z,103155.81
2023-02-05T10:38:57.532Z,103095.97
2023-02-05T10:41:29.102Z,103083.59
2023-02-05T10:44:06.217Z,103038.78
2023-02-05T10:46:36.372Z,103032.81
2023-02-05T10:49:09.386Z,103007.38
2023-02-05T10:51:41.874Z,102989.53
2023-02-05T10:54:23.631Z,102973.75
2023-02-05T10:56:51.816Z,102967.66
2023-02-05T10:59:25.876Z,103035.56
2023-02-05T11:01:56.986Z,103068.16
2023-02-05T11:04:34.286Z,103065.41
2023-02-05T11:07:06.136Z,103054.25
2023-02-05T11:09:36.490Z,103058.41
2023-02-05T11:12:07.071Z,103037.84
2023-02-05T11:14:37.507Z,103015.03
2023-02-05T11:17:20.302Z,102985.19
2023-02-05T11:20:00.073Z,102985.97
2023-02-05T11:22:30.428Z,102994.78
2023-02-05T11:25:16.919Z,102995.66
2023-02-05T11:27:51.524Z,102994.75
2023-02-05T11:30:49.683Z,102987.06
2023-02-05T11:33:32.415Z,102977.41
2023-02-05T11:36:09.327Z,102955.28
2023-02-05T11:38:45.459Z,102948.56
2023-02-05T11:41:27.126Z,102960.97
2023-02-05T11:43:56.295Z,102969.81
2023-02-05T11:46:25.752Z,102978.56
2023-02-05T11:48:59.216Z,102978.53
2023-02-05T11:51:44.567Z,102990.72
2023-02-05T11:54:21.631Z,102992.34
2023-02-05T11:57:08.510Z,102995.88
2023-02-05T11:59:36.977Z,102989.63
2023-02-05T12:02:29.421Z,102987.00
2023-02-05T12:05:01.989Z,102987.19
2023-02-05T12:07:36.185Z,102993.50
2023-02-05T12:10:04.375Z,103014.78
2023-02-05T12:12:44.909Z,103033.34
2023-02-05T12:15:22.143Z,103070.44
2023-02-05T12:17:59.097Z,103103.97
2023-02-05T12:20:31.197Z,103119.84
2023-02-05T12:23:32.617Z,103099.53
2023-02-05T12:26:27.529Z,103091.47
2023-02-05T12:29:11.841Z,103082.63
2023-02-05T12:31:52.598Z,103074.66
2023-02-05T12:34:38.355Z,103095.81
2023-02-05T12:37:19.720Z,103097.56
2023-02-05T12:39:53.938Z,103101.34
2023-02-05T12:42:35.336Z,103154.13
2023-02-05T12:45:31.502Z,103157.63
2023-02-05T12:48:12.750Z,103131.03
2023-02-05T12:50:54.339Z,103115.03
2023-02-05T12:53:44.422Z,103084.50
2023-02-05T12:56:28.563Z,103108.16
2023-02-05T12:59:03.444Z,103140.06
2023-02-05T13:01:39.656Z,103175.06
2023-02-05T13:04:13.121Z,103169.91
2023-02-05T13:06:47.832Z,103160.13
2023-02-05T13:09:24.086Z,103162.69
2023-02-05T13:11:57.624Z,103153.00
2023-02-05T13:14:31.884Z,103138.75
2023-02-05T13:17:06.342Z,103135.31
2023-02-05T13:19:41.154Z,103140.50
2023-02-05T13:22:32.435Z,103153.53
2023-02-05T13:25:30.015Z,103145.28
2023-02-05T13:28:29.203Z,103200.69
2023-02-05T13:30:59.120Z,103191.84
2023-02-05T13:33:29.439Z,103207.69
2023-02-05T13:36:14.355Z,103200.47
2023-02-05T13:38:55.367Z,103199.91
2023-02-05T13:41:59.318Z,103245.78
2023-02-05T13:44:53.018Z,103274.56
2023-02-05T13:47:51.580Z,103296.88
2023-02-05T13:50:51.271Z,103315.56
2023-02-05T13:53:37.671Z,103313.81
2023-02-05T13:56:22.295Z,103249.56
2023-02-05T13:58:52.914Z,103261.75
2023-02-05T14:01:25.465Z,103240.66
2023-02-05T14:03:59.787Z,103237.19
2023-02-05T14:06:36.886Z,103230.09
2023-02-05T14:09:07.947Z,103226.59
2023-02-05T14:11:54.491Z,103216.91
2023-02-05T14:14:28.923Z,103200.06
2023-02-05T14:16:57.868Z,103211.41
2023-02-05T14:19:52.319Z,103201.09
2023-02-05T14:22:38.885Z,103180.66
2023-02-05T14:25:42.597Z,103202.28
2023-02-05T14:28:35.321Z,103213.59
2023-02-05T14:31:05.932Z,103217.28
2023-02-05T14:33:39.355Z,103215.41
2023-02-05T14:36:42.618Z,103224.84
2023-02-05T14:39:26.429Z,103230.25
2023-02-05T14:41:59.113Z,103224.00
2023-02-05T14:44:31.116Z,103218.00
2023-02-05T14:47:05.806Z,103224.19
2023-02-05T14:49:42.870Z,103238.75
2023-02-05T14:52:31.644Z,103247.69
2023-02-05T14:55:04.826Z,103224.56
2023-02-05T14:57:49.188Z,103243.75
2023-02-05T15:00:28.573Z,103254.28
2023-02-05T15:03:25.023Z,103271.06
2023-02-05T15:06:01.140Z,103263.09
2023-02-05T15:09:13.719Z,103266.84
2023-02-05T15:11:55.783Z,103267.69
2023-02-05T15:14:44.794Z,103269.25
2023-02-05T15:17:54.369Z,103280.59
2023-02-05T15:20:32.243Z,103264.44
2023-02-05T15:23:21.981Z,103282.03
2023-02-05T15:26:02.798Z,103284.47
2023-02-05T15:28:36.767Z,103287.94
2023-02-05T15:31:16.539Z,103285.28
2023-02-05T15:33:54.446Z,103291.38
2023-02-05T15:36:33.886Z,103293.94
2023-02-05T15:39:21.213Z,103317.72
2023-02-05T15:41:49.855Z,103317.66
2023-02-05T15:44:28.181Z,103318.38
2023-02-05T15:46:59.046Z,103323.53
2023-02-05T15:49:33.474Z,103322.56
2023-02-05T15:52:03.680Z,103317.94
2023-02-05T15:54:35.738Z,103310.94
2023-02-05T15:57:07.062Z,103311.75
2023-02-05T15:59:37.528Z,103312.59
2023-02-05T16:02:17.494Z,103305.44
2023-02-05T16:04:46.162Z,103292.16
2023-02-05T16:07:23.490Z,103285.06
2023-02-05T16:09:54.433Z,103263.91
2023-02-05T16:12:25.134Z,103256.63
2023-02-05T16:15:02.638Z,103226.91
2023-02-05T16:17:44.307Z,103230.38
2023-02-05T16:20:26.697Z,103222.41
2023-02-05T16:22:59.322Z,103203.00
2023-02-05T16:25:38.108Z,103210.66
2023-02-05T16:28:13.077Z,103216.63
2023-02-05T16:30:43.881Z,103226.16
2023-02-05T16:33:33.257Z,103226.22
2023-02-05T16:36:06.934Z,103246.22
2023-02-05T16:38:37.009Z,103261.09
2023-02-05T16:41:20.827Z,103263.78
2023-02-05T16:43:49.657Z,103260.88
2023-02-05T16:46:30.283Z,103286.34
2023-02-05T16:49:01.434Z,103298.59
2023-02-05T16:51:55.202Z,103296.75
2023-02-05T16:54:30.232Z,103286.09
2023-02-05T16:57:04.133Z,103275.41
2023-02-05T16:59:36.167Z,103281.56
2023-02-05T17:02:21.813Z,103300.72
2023-02-05T17:04:58.110Z,103297.16
2023-02-05T17:07:26.716Z,103297.84
2023-02-05T17:10:17.736Z,103286.03
2023-02-05T17:13:06.126Z,103273.09
2023-02-05T17:15:37.639Z,103279.19
2023-02-05T17:18:29.207Z,103276.56
2023-02-05T17:21:30.900Z,103278.06
2023-02-05T17:24:03.384Z,103263.09
2023-02-05T17:26:35.303Z,103272.69
2023-02-05T17:29:08.136Z,103266.72
2023-02-05T17:31:39.344Z,103270.06
2023-02-05T17:34:08.793Z,103281.06
2023-02-05T17:36:37.417Z,103288.56
2023-02-05T17:39:05.940Z,103297.13
2023-02-05T17:41:55.785Z,103295.53
2023-02-05T17:44:23.963Z,103304.34
2023-02-05T17:46:54.256Z,103289.88
2023-02-05T17:49:23.868Z,103307.44
2023-02-05T17:51:51.835Z,103310.84
2023-02-05T17:54:22.986Z,103300.94
2023-02-05T17:56:51.608Z,103287.00
2023-02-05T17:59:22.256Z,103302.06
2023-02-05T18:01:51.707Z,103302.06
2023-02-05T18:04:20.598Z,103295.28
2023-02-05T18:06:51.218Z,103304.16
2023-02-05T18:09:22.470Z,103314.81
2023-02-05T18:11:50.566Z,103322.38
2023-02-05T18:14:21.214Z,103317.28
2023-02-05T18:16:49.342Z,103316.50
2023-02-05T18:19:23.286Z,103315.38
2023-02-05T18:21:52.805Z,103312.75
2023-02-05T18:24:20.881Z,103317.00
2023-02-05T18:26:52.739Z,103306.34
2023-02-05T18:29:21.735Z,103319.34
2023-02-05T18:31:50.229Z,103316.78
2023-02-05T18:34:18.434Z,103332.06
2023-02-05T18:36:46.630Z,103340.06
2023-02-05T18:39:15.998Z,103343.28
2023-02-05T18:41:43.921Z,103347.91
2023-02-05T18:44:12.515Z,103323.09
2023-02-05T18:46:40.729Z,103331.13
2023-02-05T18:49:08.830Z,103336.44
2023-02-05T18:51:38.634Z,103339.69
2023-02-05T18:54:07.519Z,103328.28
2023-02-05T18:56:36.967Z,103332.72
2023-02-05T18:59:10.231Z,103328.91
2023-02-05T19:01:45.460Z,103314.56
2023-02-05T19:04:15.576Z,103320.22
2023-02-05T19:06:44.756Z,103327.06
2023-02-05T19:09:13.285Z,103333.09
2023-02-05T19:11:44.175Z,103330.03
2023-02-05T19:14:13.988Z,103339.19
2023-02-05T19:16:43.296Z,103338.94
2023-02-05T19:19:13.675Z,103345.38
2023-02-05T19:21:43.993Z,103346.44
2023-02-05T19:24:14.045Z,103350.50
2023-02-05T19:26:44.343Z,103371.94
2023-02-05T19:29:16.303Z,103439.56
2023-02-05T19:31:46.033Z,103446.44
2023-02-05T19:34:14.770Z,103443.75
2023-02-05T19:36:45.152Z,103451.69
2023-02-05T19:39:17.491Z,103446.97
2023-02-05T19:41:51.958Z,103417.63
2023-02-05T19:44:24.782Z,103404.31
2023-02-05T19:47:06.086Z,103373.50
2023-02-05T19:49:34.095Z,103322.78
2023-02-05T19:52:04.152Z,103316.06
2023-02-05T19:54:32.173Z,103334.03
2023-02-05T19:57:01.752Z,103307.00
2023-02-05T19:59:30.773Z,103311.19
2023-02-05T20:01:58.786Z,103312.44
2023-02-05T20:04:28.768Z,103309.88
2023-02-05T20:06:59.258Z,103326.94
2023-02-05T20:09:28.350Z,103317.91
2023-02-05T20:11:56.798Z,103340.13
2023-02-05T20:14:28.552Z,103353.72
2023-02-05T20:16:57.050Z,103359.38
2023-02-05T20:19:25.416Z,103358.03
2023-02-05T20:21:57.895Z,103374.88
2023-02-05T20:24:26.955Z,103374.50
2023-02-05T20:26:57.004Z,103391.16
2023-02-05T20:29:54.783Z,103420.78
2023-02-05T20:32:28.578Z,103437.19
2023-02-05T20:35:02.924Z,103454.66
2023-02-05T20:37:32.045Z,103498.84
2023-02-05T20:40:00.969Z,103526.56
2023-02-05T20:42:30.806Z,103542.88
2023-02-05T20:45:00.248Z,103546.50
2023-02-05T20:47:29.648Z,103565.44
2023-02-05T20:49:59.330Z,103579.63
2023-02-05T20:52:27.377Z,103588.19
2023-02-05T20:54:57.250Z,103605.97
2023-02-05T20:57:25.391Z,103611.22
2023-02-05T20:59:54.641Z,103612.91
2023-02-05T21:02:24.398Z,103630.06
2023-02-05T21:04:52.891Z,103643.94
2023-02-05T21:07:25.092Z,103644.28
2023-02-05T21:09:53.553Z,103641.22
2023-02-05T21:12:31.134Z,103647.38
2023-02-05T21:14:59.303Z,103726.28
2023-02-05T21:17:29.915Z,103723.50
2023-02-05T21:20:03.878Z,103724.53
2023-02-05T21:22:36.455Z,103725.50
2023-02-05T21:25:04.468Z,103733.13
2023-02-05T21:27:36.162Z,103731.41
2023-02-05T21:30:06.743Z,103739.47
2023-02-05T21:32:36.210Z,103737.88
2023-02-05T21:35:04.224Z,103747.78
2023-02-05T21:37:33.856Z,103748.56
2023-02-05T21:40:09.144Z,103750.75
2023-02-05T21:42:39.828Z,103742.84
2023-02-05T21:45:08.677Z,103743.59
2023-02-05T21:47:38.298Z,103756.34
2023-02-05T21:50:07.279Z,103761.56
2023-02-05T21:52:36.704Z,103758.97
2023-02-05T21:55:10.152Z,103752.38
2023-02-05T21:57:38.282Z,103765.03
2023-02-05T22:00:06.681Z,103765.06
2023-02-05T22:02:34.537Z,103774.78
2023-02-05T22:05:04.504Z,103772.81
2023-02-05T22:07:32.626Z,103786.13
2023-02-05T22:10:00.651Z,103794.50
2023-02-05T22:12:29.624Z,103790.97
2023-02-05T22:14:57.585Z,103792.34
2023-02-05T22:17:26.646Z,103792.78
2023-02-05T22:19:54.467Z,103788.69
2023-02-05T22:22:23.727Z,103786.81
2023-02-05T22:24:51.721Z,103777.97
2023-02-05T22:27:19.982Z,103802.06
2023-02-05T22:29:58.426Z,103797.63
2023-02-05T22:32:26.363Z,103782.63
2023-02-05T22:35:02.710Z,103807.19
2023-02-05T22:37:38.376Z,103801.53
2023-02-05T22:40:07.770Z,103796.59
2023-02-05T22:42:35.866Z,103798.78
2023-02-05T22:45:04.555Z,103812.47
2023-02-05T22:47:32.557Z,103816.22
2023-02-05T22:50:00.446Z,103818.03
2023-02-05T22:52:28.336Z,103812.78
2023-02-05T22:54:57.877Z,103815.81
2023-02-05T22:57:25.914Z,103812.16
2023-02-05T22:59:54.336Z,103789.59
2023-02-05T23:02:22.172Z,103805.78
2023-02-05T23:04:50.094Z,103807.31
2023-02-05T23:07:18.142Z,103796.56
2023-02-05T23:09:46.111Z,103803.28
2023-02-05T23:12:17.298Z,103800.66
2023-02-05T23:14:46.123Z,103810.91
2023-02-05T23:17:14.437Z,103807.22
2023-02-05T23:19:44.768Z,103799.59
2023-02-05T23:22:12.733Z,103819.22
2023-02-05T23:24:40.550Z,103800.38
2023-02-05T23:27:08.480Z,103804.78
2023-02-05T23:29:41.982Z,103794.16
2023-02-05T23:32:14.999Z,103800.16
2023-02-05T23:34:43.173Z,103795.03
2023-02-05T23:37:14.216Z,103778.25
2023-02-05T23:39:42.108Z,103793.47
2023-02-05T23:42:11.774Z,103808.69
2023-02-05T23:44:42.939Z,103804.66
2023-02-05T23:47:11.083Z,103801.97
2023-02-05T23:49:39.367Z,103790.28
2023-02-05T23:52:07.469Z,103799.38
2023-02-05T23:54:35.970Z,103803.44
2023-02-05T23:57:04.259Z,103794.31
2023-02-05T23:59:32.737Z,103807.13
